sensor_id;sensor_type;location;lat;lon;timestamp;temperature;humidity
43862;DHT22;29510;52.140;5.034;2023-01-30T00:04:32;6.60;99.90
43862;DHT22;29510;52.140;5.034;2023-01-30T00:14:33;6.70;99.90
43862;DHT22;29510;52.140;5.034;2023-01-30T00:24:34;6.90;99.90
43862;DHT22;29510;52.140;5.034;2023-01-30T00:34:35;7.10;99.90
43862;DHT22;29510;52.140;5.034;2023-01-30T00:44:36;7.20;99.90
43862;DHT22;29510;52.140;5.034;2023-01-30T00:54:55;7.30;99.90
43862;DHT22;29510;52.140;5.034;2023-01-30T01:04:56;7.70;99.90
43862;DHT22;29510;52.140;5.034;2023-01-30T01:14:57;7.90;99.90
43862;DHT22;29510;52.140;5.034;2023-01-30T01:24:58;8.00;99.90
43862;DHT22;29510;52.140;5.034;2023-01-30T01:34:59;8.10;99.90
43862;DHT22;29510;52.140;5.034;2023-01-30T01:45:22;8.10;99.90
43862;DHT22;29510;52.140;5.034;2023-01-30T01:55:24;8.00;99.90
43862;DHT22;29510;52.140;5.034;2023-01-30T02:05:33;7.80;99.90
43862;DHT22;29510;52.140;5.034;2023-01-30T02:15:35;7.70;99.90
43862;DHT22;29510;52.140;5.034;2023-01-30T02:26:00;7.40;99.90
43862;DHT22;29510;52.140;5.034;2023-01-30T02:36:12;7.40;99.90
43862;DHT22;29510;52.140;5.034;2023-01-30T02:46:20;7.30;99.90
43862;DHT22;29510;52.140;5.034;2023-01-30T02:56:24;7.30;99.90
43862;DHT22;29510;52.140;5.034;2023-01-30T03:16:37;7.40;99.90
43862;DHT22;29510;52.140;5.034;2023-01-30T03:26:56;7.40;99.90
43862;DHT22;29510;52.140;5.034;2023-01-30T03:36:58;7.50;99.90
43862;DHT22;29510;52.140;5.034;2023-01-30T03:46:59;7.50;99.90
43862;DHT22;29510;52.140;5.034;2023-01-30T03:57:00;7.60;99.90
43862;DHT22;29510;52.140;5.034;2023-01-30T04:07:01;7.80;99.90
43862;DHT22;29510;52.140;5.034;2023-01-30T04:17:02;7.80;99.90
43862;DHT22;29510;52.140;5.034;2023-01-30T04:27:03;7.70;99.90
43862;DHT22;29510;52.140;5.034;2023-01-30T04:37:04;7.70;99.90
43862;DHT22;29510;52.140;5.034;2023-01-30T04:47:05;7.70;99.90
43862;DHT22;29510;52.140;5.034;2023-01-30T04:57:06;7.80;99.90
43862;DHT22;29510;52.140;5.034;2023-01-30T05:07:07;7.90;99.90
43862;DHT22;29510;52.140;5.034;2023-01-30T05:17:08;8.00;99.90
43862;DHT22;29510;52.140;5.034;2023-01-30T05:27:09;7.90;99.90
43862;DHT22;29510;52.140;5.034;2023-01-30T05:37:11;7.80;96.90
43862;DHT22;29510;52.140;5.034;2023-01-30T05:47:12;7.60;90.00
43862;DHT22;29510;52.140;5.034;2023-01-30T05:57:13;7.50;87.00
43862;DHT22;29510;52.140;5.034;2023-01-30T06:07:16;7.20;90.20
43862;DHT22;29510;52.140;5.034;2023-01-30T06:17:17;7.10;72.10
43862;DHT22;29510;52.140;5.034;2023-01-30T06:27:18;6.90;59.90
43862;DHT22;29510;52.140;5.034;2023-01-30T06:37:20;6.80;57.90
43862;DHT22;29510;52.140;5.034;2023-01-30T06:47:21;6.70;57.60
43862;DHT22;29510;52.140;5.034;2023-01-30T06:57:21;6.80;48.70
43862;DHT22;29510;52.140;5.034;2023-01-30T07:07:22;6.70;40.00
43862;DHT22;29510;52.140;5.034;2023-01-30T07:17:24;6.60;31.80
43862;DHT22;29510;52.140;5.034;2023-01-30T07:27:25;6.70;24.70
43862;DHT22;29510;52.140;5.034;2023-01-30T07:37:26;6.70;23.80
43862;DHT22;29510;52.140;5.034;2023-01-30T07:47:27;6.70;22.30
43862;DHT22;29510;52.140;5.034;2023-01-30T07:57:28;6.70;23.10
43862;DHT22;29510;52.140;5.034;2023-01-30T08:07:29;6.70;23.60
43862;DHT22;29510;52.140;5.034;2023-01-30T08:17:30;6.70;24.10
43862;DHT22;29510;52.140;5.034;2023-01-30T08:27:31;6.70;26.40
43862;DHT22;29510;52.140;5.034;2023-01-30T08:37:32;7.00;22.30
43862;DHT22;29510;52.140;5.034;2023-01-30T08:47:33;7.10;21.70
43862;DHT22;29510;52.140;5.034;2023-01-30T08:57:35;7.30;19.40
43862;DHT22;29510;52.140;5.034;2023-01-30T09:07:36;7.40;18.00
43862;DHT22;29510;52.140;5.034;2023-01-30T09:17:37;7.30;18.90
43862;DHT22;29510;52.140;5.034;2023-01-30T09:27:38;7.50;17.10
43862;DHT22;29510;52.140;5.034;2023-01-30T09:37:49;7.60;14.70
43862;DHT22;29510;52.140;5.034;2023-01-30T09:48:53;7.70;15.00
43862;DHT22;29510;52.140;5.034;2023-01-30T09:58:41;7.80;15.30
43862;DHT22;29510;52.140;5.034;2023-01-30T10:29:25;8.00;13.10
43862;DHT22;29510;52.140;5.034;2023-01-30T10:50:16;8.10;13.30
43862;DHT22;29510;52.140;5.034;2023-01-30T11:00:41;8.10;11.60
43862;DHT22;29510;52.140;5.034;2023-01-30T11:10:43;8.10;10.00
43862;DHT22;29510;52.140;5.034;2023-01-30T11:20:49;8.60;11.00
43862;DHT22;29510;52.140;5.034;2023-01-30T11:30:59;9.00;8.10
43862;DHT22;29510;52.140;5.034;2023-01-30T11:41:15;9.60;5.20
43862;DHT22;29510;52.140;5.034;2023-01-30T11:51:18;9.70;1.90
43862;DHT22;29510;52.140;5.034;2023-01-30T12:01:19;9.50;2.20
43862;DHT22;29510;52.140;5.034;2023-01-30T12:21:44;9.70;1.90
43862;DHT22;29510;52.140;5.034;2023-01-30T12:31:53;10.30;1.10
43862;DHT22;29510;52.140;5.034;2023-01-30T12:42:19;10.40;1.00
43862;DHT22;29510;52.140;5.034;2023-01-30T12:53:01;10.90;1.00
43862;DHT22;29510;52.140;5.034;2023-01-30T13:34:11;8.80;2.70
43862;DHT22;29510;52.140;5.034;2023-01-30T13:44:25;8.80;1.90
43862;DHT22;29510;52.140;5.034;2023-01-30T13:54:43;8.80;4.80
43862;DHT22;29510;52.140;5.034;2023-01-30T14:04:48;8.70;1.30
43862;DHT22;29510;52.140;5.034;2023-01-30T14:15:03;9.00;1.20
43862;DHT22;29510;52.140;5.034;2023-01-30T14:35:31;8.90;1.70
43862;DHT22;29510;52.140;5.034;2023-01-30T14:55:58;8.70;2.30
43862;DHT22;29510;52.140;5.034;2023-01-30T15:06:00;8.60;1.40
43862;DHT22;29510;52.140;5.034;2023-01-30T15:27:06;8.40;3.60
43862;DHT22;29510;52.140;5.034;2023-01-30T15:57:44;8.40;3.80
43862;DHT22;29510;52.140;5.034;2023-01-30T16:07:49;8.30;8.00
43862;DHT22;29510;52.140;5.034;2023-01-30T16:18:00;8.30;11.60
43862;DHT22;29510;52.140;5.034;2023-01-30T16:28:02;7.50;15.90
43862;DHT22;29510;52.140;5.034;2023-01-30T16:48:34;6.70;27.90
43862;DHT22;29510;52.140;5.034;2023-01-30T16:58:36;6.60;34.10
43862;DHT22;29510;52.140;5.034;2023-01-30T17:08:49;6.70;52.50
43862;DHT22;29510;52.140;5.034;2023-01-30T17:18:54;6.70;60.20
43862;DHT22;29510;52.140;5.034;2023-01-30T17:28:56;6.30;93.40
43862;DHT22;29510;52.140;5.034;2023-01-30T17:38:58;6.00;99.90
43862;DHT22;29510;52.140;5.034;2023-01-30T17:48:59;5.80;99.90
43862;DHT22;29510;52.140;5.034;2023-01-30T17:59:00;5.80;99.90
43862;DHT22;29510;52.140;5.034;2023-01-30T18:09:02;5.60;99.90
43862;DHT22;29510;52.140;5.034;2023-01-30T18:19:06;5.50;99.90
43862;DHT22;29510;52.140;5.034;2023-01-30T18:29:08;5.60;99.90
43862;DHT22;29510;52.140;5.034;2023-01-30T18:39:10;5.70;99.90
43862;DHT22;29510;52.140;5.034;2023-01-30T18:49:12;5.80;99.90
43862;DHT22;29510;52.140;5.034;2023-01-30T18:59:13;5.80;99.90
43862;DHT22;29510;52.140;5.034;2023-01-30T19:09:15;5.60;99.90
43862;DHT22;29510;52.140;5.034;2023-01-30T19:19:17;5.60;99.90
43862;DHT22;29510;52.140;5.034;2023-01-30T19:29:18;5.60;95.90
43862;DHT22;29510;52.140;5.034;2023-01-30T19:39:20;5.50;90.80
43862;DHT22;29510;52.140;5.034;2023-01-30T19:49:21;5.20;94.00
43862;DHT22;29510;52.140;5.034;2023-01-30T19:59:22;5.10;99.90
43862;DHT22;29510;52.140;5.034;2023-01-30T20:09:23;4.90;99.90
43862;DHT22;29510;52.140;5.034;2023-01-30T20:19:24;4.60;99.90
43862;DHT22;29510;52.140;5.034;2023-01-30T20:29:25;4.60;99.90
43862;DHT22;29510;52.140;5.034;2023-01-30T20:39:26;4.60;99.90
43862;DHT22;29510;52.140;5.034;2023-01-30T20:49:27;4.50;99.90
43862;DHT22;29510;52.140;5.034;2023-01-30T20:59:28;4.50;99.90
43862;DHT22;29510;52.140;5.034;2023-01-30T21:09:29;4.40;99.90
43862;DHT22;29510;52.140;5.034;2023-01-30T21:19:31;4.40;99.90
43862;DHT22;29510;52.140;5.034;2023-01-30T21:29:32;4.30;99.90
43862;DHT22;29510;52.140;5.034;2023-01-30T21:39:33;4.50;99.90
43862;DHT22;29510;52.140;5.034;2023-01-30T21:49:53;4.70;99.90
43862;DHT22;29510;52.140;5.034;2023-01-30T21:59:54;4.60;99.90
43862;DHT22;29510;52.140;5.034;2023-01-30T22:09:55;4.50;99.90
43862;DHT22;29510;52.140;5.034;2023-01-30T22:19:56;4.30;99.90
43862;DHT22;29510;52.140;5.034;2023-01-30T22:29:57;4.20;99.90
43862;DHT22;29510;52.140;5.034;2023-01-30T22:39:58;4.00;99.90
43862;DHT22;29510;52.140;5.034;2023-01-30T22:49:59;3.90;99.90
43862;DHT22;29510;52.140;5.034;2023-01-30T23:00:00;3.70;99.90
43862;DHT22;29510;52.140;5.034;2023-01-30T23:10:02;3.60;99.90
43862;DHT22;29510;52.140;5.034;2023-01-30T23:20:03;3.40;99.90
43862;DHT22;29510;52.140;5.034;2023-01-30T23:30:04;3.40;99.90
43862;DHT22;29510;52.140;5.034;2023-01-30T23:40:06;3.40;99.90
43862;DHT22;29510;52.140;5.034;2023-01-30T23:50:08;3.50;99.90
